createdAt,value
2019-05-10T00:00:40.270Z,82.4063
2019-05-10T00:01:43.307Z,82.0859
2019-05-10T00:02:46.346Z,82.4063
2019-05-10T00:03:49.287Z,81.8311
2019-05-10T00:04:52.337Z,81.8952
2019-05-10T00:05:55.295Z,81.9181
2019-05-10T00:06:58.318Z,82.0920
2019-05-10T00:08:01.281Z,82.2370
2019-05-10T00:09:04.290Z,82.1744
2019-05-10T00:10:07.299Z,82.4018
2019-05-10T00:11:10.318Z,82.8321
2019-05-10T00:12:13.292Z,82.2751
2019-05-10T00:13:16.317Z,82.5727
2019-05-10T00:14:19.298Z,82.9740
2019-05-10T00:15:21.297Z,83.2502
2019-05-10T00:16:24.332Z,83.3371
2019-05-10T00:17:27.273Z,83.5416
2019-05-10T00:18:30.367Z,83.2898
2019-05-10T00:19:33.298Z,83.6194
2019-05-10T00:20:36.300Z,83.6805
2019-05-10T00:21:39.286Z,83.2486
2019-05-10T00:22:42.305Z,83.1800
2019-05-10T00:23:45.304Z,83.1907
2019-05-10T00:25:02.256Z,83.4546
2019-05-10T00:25:56.297Z,83.7079
2019-05-10T00:26:59.305Z,84.2802
2019-05-10T00:28:02.314Z,84.6143
2019-05-10T00:29:05.289Z,85.3956
2019-05-10T00:30:08.296Z,84.6922
2019-05-10T00:31:11.265Z,86.1006
2019-05-10T00:32:14.301Z,87.1580
2019-05-10T00:33:17.291Z,85.7069
2019-05-10T00:34:20.304Z,85.5253
2019-05-10T00:35:23.315Z,85.7252
2019-05-10T00:36:26.293Z,85.4154
2019-05-10T00:37:29.318Z,85.2949
2019-05-10T00:38:32.302Z,84.4724
2019-05-10T00:39:35.325Z,83.8956
2019-05-10T00:40:38.304Z,83.3219
2019-05-10T00:41:40.272Z,83.4043
2019-05-10T00:42:43.252Z,83.7034
2019-05-10T00:43:46.300Z,84.1474
2019-05-10T00:44:49.298Z,84.2298
2019-05-10T00:45:52.293Z,84.2756
2019-05-10T00:46:55.298Z,84.0742
2019-05-10T00:47:58.287Z,83.5431
2019-05-10T00:49:01.300Z,83.6606
2019-05-10T00:50:04.304Z,83.8499
2019-05-10T00:51:07.331Z,84.0833
2019-05-10T00:52:10.288Z,84.3626
2019-05-10T00:53:13.298Z,84.2466
2019-05-10T00:54:16.307Z,85.0629
2019-05-10T00:55:19.621Z,86.0227
2019-05-10T00:56:21.329Z,86.8650
2019-05-10T00:57:24.294Z,88.4398
2019-05-10T00:58:27.312Z,89.5033
2019-05-10T00:59:30.290Z,90.5409
2019-05-10T01:00:33.269Z,90.6462
2019-05-10T01:01:36.287Z,90.6432
2019-05-10T01:02:39.280Z,91.7311
2019-05-10T01:03:42.265Z,92.7535
2019-05-10T01:04:44.342Z,93.3211
2019-05-10T01:05:47.291Z,92.3674
2019-05-10T01:06:51.443Z,93.0037
2019-05-10T01:07:54.301Z,93.2754
2019-05-10T01:08:57.250Z,93.9757
2019-05-10T01:10:00.325Z,93.3166
2019-05-10T01:11:03.295Z,94.1268
2019-05-10T01:12:06.307Z,94.5159
2019-05-10T01:13:09.282Z,94.9599
2019-05-10T01:14:12.295Z,95.2483
2019-05-10T01:15:15.354Z,95.1049
2019-05-10T01:16:18.307Z,95.2255
2019-05-10T01:17:21.310Z,95.4803
2019-05-10T01:18:24.263Z,95.6405
2019-05-10T01:19:27.292Z,95.7015
2019-05-10T01:20:30.301Z,95.2606
2019-05-10T01:21:32.297Z,95.7366
2019-05-10T01:22:35.281Z,95.7610
2019-05-10T01:23:37.263Z,95.1003
2019-05-10T01:24:40.308Z,95.9060
2019-05-10T01:25:44.376Z,96.0632
2019-05-10T01:26:47.325Z,96.1959
2019-05-10T01:27:50.257Z,95.5810
2019-05-10T01:28:53.294Z,95.1095
2019-05-10T01:29:56.292Z,94.6120
2019-05-10T01:30:59.359Z,94.8943
2019-05-10T01:32:02.290Z,94.9722
2019-05-10T01:33:05.287Z,95.2850
2019-05-10T01:34:08.306Z,95.0683
2019-05-10T01:35:11.304Z,95.3933
2019-05-10T01:36:14.337Z,96.0342
2019-05-10T01:37:17.291Z,95.7320
2019-05-10T01:38:20.301Z,95.7336
2019-05-10T01:39:23.279Z,94.8226
2019-05-10T01:40:26.292Z,95.1553
2019-05-10T01:41:29.303Z,95.3155
2019-05-10T01:42:32.280Z,95.3857
2019-05-10T01:43:35.309Z,95.8511
2019-05-10T01:44:38.290Z,95.5764
2019-05-10T01:45:40.295Z,95.5489
2019-05-10T01:46:43.329Z,95.8251
2019-05-10T01:47:46.297Z,96.0494
2019-05-10T01:48:49.269Z,95.6054
2019-05-10T01:49:52.392Z,95.7183
2019-05-10T01:50:55.285Z,96.1135
2019-05-10T01:51:58.299Z,95.6649
2019-05-10T01:53:01.282Z,95.9289
2019-05-10T01:54:04.259Z,96.1303
2019-05-10T01:55:07.298Z,95.4208
2019-05-10T01:56:10.300Z,95.5169
2019-05-10T01:57:13.355Z,95.8022
2019-05-10T01:58:16.318Z,95.9930
2019-05-10T01:59:19.289Z,96.3607
2019-05-10T02:00:22.284Z,96.8002
2019-05-10T02:01:25.283Z,96.6079
2019-05-10T02:02:28.338Z,97.0703
2019-05-10T02:03:31.259Z,97.0962
2019-05-10T02:04:34.302Z,96.8368
2019-05-10T02:05:37.277Z,97.0733
2019-05-10T02:06:40.309Z,97.1603
2019-05-10T02:07:43.382Z,97.3770
2019-05-10T02:08:46.319Z,97.2747
2019-05-10T02:09:49.320Z,97.3755
2019-05-10T02:10:52.303Z,97.3938
2019-05-10T02:11:55.311Z,97.6013
2019-05-10T02:12:58.329Z,97.5952
2019-05-10T02:14:01.316Z,97.7478
2019-05-10T02:15:04.268Z,97.6608
2019-05-10T02:16:07.289Z,97.7157
2019-05-10T02:17:10.279Z,97.8073
2019-05-10T02:18:13.349Z,98.0667
2019-05-10T02:19:16.288Z,98.0117
2019-05-10T02:20:19.343Z,97.8241
2019-05-10T02:21:22.318Z,97.8836
2019-05-10T02:22:25.290Z,97.9034
2019-05-10T02:23:28.352Z,97.7707
2019-05-10T02:24:31.286Z,97.7645
2019-05-10T02:25:34.322Z,97.7920
2019-05-10T02:26:36.305Z,97.6959
2019-05-10T02:27:39.306Z,97.7050
2019-05-10T02:28:42.320Z,97.6425
2019-05-10T02:29:45.342Z,97.6654
2019-05-10T02:30:48.292Z,97.6425
2019-05-10T02:31:51.286Z,97.7661
2019-05-10T02:32:54.342Z,97.3449
2019-05-10T02:33:57.322Z,97.5051
2019-05-10T02:35:00.373Z,97.7188
2019-05-10T02:36:03.322Z,98.0316
2019-05-10T02:37:06.326Z,98.1186
2019-05-10T02:38:08.288Z,98.1048
2019-05-10T02:39:11.393Z,97.9034
2019-05-10T02:40:14.303Z,97.6425
2019-05-10T02:41:17.306Z,97.9019
2019-05-10T02:42:20.332Z,97.7249
2019-05-10T02:43:23.290Z,97.7157
2019-05-10T02:44:26.357Z,97.9171
2019-05-10T02:45:29.331Z,97.8378
2019-05-10T02:46:32.318Z,97.7371
2019-05-10T02:47:35.297Z,97.9110
2019-05-10T02:48:38.346Z,98.0621
2019-05-10T02:49:41.296Z,97.7066
2019-05-10T02:50:44.282Z,97.6959
2019-05-10T02:51:47.317Z,97.4914
2019-05-10T02:52:50.287Z,97.5509
2019-05-10T02:53:53.321Z,97.7386
2019-05-10T02:54:56.314Z,97.5219
2019-05-10T02:55:59.319Z,97.7783
2019-05-10T02:57:02.318Z,97.9263
2019-05-10T02:58:05.314Z,97.8057
2019-05-10T02:59:08.321Z,97.6776
2019-05-10T03:00:11.316Z,97.9660
2019-05-10T03:01:14.318Z,98.0484
2019-05-10T03:02:17.343Z,98.5153
2019-05-10T03:03:20.301Z,98.5351
2019-05-10T03:04:23.337Z,98.4619
2019-05-10T03:05:26.341Z,98.2834
2019-05-10T03:06:29.282Z,98.5016
2019-05-10T03:07:32.353Z,98.5306
2019-05-10T03:08:35.289Z,98.4527
2019-05-10T03:09:38.333Z,98.4939
2019-05-10T03:10:41.306Z,98.4695
2019-05-10T03:11:44.277Z,98.3780
2019-05-10T03:12:47.322Z,98.5565
2019-05-10T03:13:50.394Z,98.7991
2019-05-10T03:14:52.283Z,98.8495
2019-05-10T03:15:55.315Z,99.0021
2019-05-10T03:16:58.327Z,99.0784
2019-05-10T03:18:01.296Z,99.0112
2019-05-10T03:19:04.318Z,98.8815
2019-05-10T03:20:07.287Z,98.9136
2019-05-10T03:21:10.337Z,98.9700
2019-05-10T03:22:13.343Z,98.9273
2019-05-10T03:23:16.277Z,98.9837
2019-05-10T03:24:19.316Z,99.0509
2019-05-10T03:25:22.295Z,98.9456
2019-05-10T03:26:25.318Z,98.9517
2019-05-10T03:27:28.284Z,98.8968
2019-05-10T03:28:31.287Z,98.6938
2019-05-10T03:29:34.284Z,98.6847
2019-05-10T03:30:37.320Z,98.7625
2019-05-10T03:31:40.321Z,98.7076
2019-05-10T03:32:43.326Z,98.6542
2019-05-10T03:33:55.009Z,98.6587
2019-05-10T03:34:54.300Z,98.6542
2019-05-10T03:35:57.369Z,98.5153
2019-05-10T03:37:00.282Z,98.2361
2019-05-10T03:38:03.292Z,98.2925
2019-05-10T03:39:06.312Z,98.1323
2019-05-10T03:40:09.325Z,98.1674
2019-05-10T03:41:12.320Z,98.1872
2019-05-10T03:42:15.265Z,98.5214
2019-05-10T03:43:18.305Z,98.5428
2019-05-10T03:44:21.277Z,98.7320
2019-05-10T03:45:24.376Z,98.4878
2019-05-10T03:46:27.307Z,98.6725
2019-05-10T03:47:30.302Z,98.7091
2019-05-10T03:48:33.268Z,98.5748
2019-05-10T03:49:36.314Z,98.0575
2019-05-10T03:50:39.319Z,98.1949
2019-05-10T03:51:42.333Z,98.1308
2019-05-10T03:52:44.308Z,98.0270
2019-05-10T03:53:47.290Z,98.2238
2019-05-10T03:54:50.310Z,98.1582
2019-05-10T03:55:53.416Z,98.1735
2019-05-10T03:57:11.871Z,98.1735
2019-05-10T03:58:04.303Z,98.2361
2019-05-10T03:59:07.315Z,98.2101
2019-05-10T04:00:10.294Z,98.1720
2019-05-10T04:01:13.300Z,98.0804
2019-05-10T04:02:16.339Z,98.2925
2019-05-10T04:03:19.284Z,98.0499
2019-05-10T04:04:24.325Z,97.8836
2019-05-10T04:05:27.303Z,97.8241
2019-05-10T04:06:30.330Z,97.8790
2019-05-10T04:07:33.294Z,97.7661
2019-05-10T04:08:36.318Z,97.4762
2019-05-10T04:09:39.269Z,97.2396
2019-05-10T04:10:42.320Z,97.5082
2019-05-10T04:11:45.328Z,97.6913
2019-05-10T04:12:48.303Z,97.3816
2019-05-10T04:13:51.312Z,97.4716
2019-05-10T04:14:54.281Z,97.4121
2019-05-10T04:15:57.294Z,97.6699
2019-05-10T04:17:01.326Z,97.5998
2019-05-10T04:18:03.351Z,97.8286
2019-05-10T04:19:06.287Z,97.8439
2019-05-10T04:20:08.312Z,97.6562
2019-05-10T04:21:10.501Z,98.1918
2019-05-10T04:22:13.294Z,98.3780
2019-05-10T04:23:16.374Z,98.4024
2019-05-10T04:24:19.297Z,98.1964
2019-05-10T04:25:22.317Z,98.2147
2019-05-10T04:26:25.339Z,97.9995
2019-05-10T04:27:32.099Z,98.3566
2019-05-10T04:28:36.327Z,98.4985
2019-05-10T04:29:39.317Z,98.6908
2019-05-10T04:30:42.275Z,98.2864
2019-05-10T04:31:44.289Z,98.3612
2019-05-10T04:32:46.456Z,98.3230
2019-05-10T04:33:49.290Z,98.5565
2019-05-10T04:34:52.318Z,98.7854
2019-05-10T04:35:55.288Z,98.7182
2019-05-10T04:36:58.290Z,98.2238
2019-05-10T04:38:00.290Z,98.3459
2019-05-10T04:39:03.333Z,98.1949
2019-05-10T04:40:06.300Z,97.7615
2019-05-10T04:41:09.301Z,98.1369
2019-05-10T04:42:12.313Z,97.9812
2019-05-10T04:43:14.295Z,98.0392
2019-05-10T04:44:17.313Z,98.1094
2019-05-10T04:45:20.276Z,97.7417
2019-05-10T04:46:23.319Z,97.9309
2019-05-10T04:47:26.303Z,96.5194
2019-05-10T04:48:29.321Z,96.5850
2019-05-10T04:49:32.341Z,97.0657
2019-05-10T04:50:35.331Z,97.1710
2019-05-10T04:51:38.358Z,97.4502
2019-05-10T04:52:40.322Z,97.7203
2019-05-10T04:53:43.338Z,97.4914
2019-05-10T04:54:45.309Z,97.5677
2019-05-10T04:55:48.328Z,97.4624
2019-05-10T04:56:50.334Z,97.5418
2019-05-10T04:57:53.313Z,97.7111
2019-05-10T04:58:55.317Z,97.7020
2019-05-10T04:59:58.295Z,97.8286
2019-05-10T05:01:01.349Z,97.7844
2019-05-10T05:02:04.303Z,97.9080
2019-05-10T05:03:07.320Z,97.1115
2019-05-10T05:04:10.295Z,96.9772
2019-05-10T05:05:13.392Z,97.3678
2019-05-10T05:06:16.296Z,97.2976
2019-05-10T05:07:19.288Z,97.7325
2019-05-10T05:08:22.339Z,97.4960
2019-05-10T05:09:25.280Z,97.3861
2019-05-10T05:10:28.361Z,97.4823
2019-05-10T05:11:31.289Z,97.8241
2019-05-10T05:12:34.319Z,97.8332
2019-05-10T05:13:37.292Z,97.7752
2019-05-10T05:14:40.340Z,97.6287
2019-05-10T05:15:43.321Z,96.9421
2019-05-10T05:16:46.337Z,96.9146
2019-05-10T05:17:49.292Z,97.5357
2019-05-10T05:18:52.291Z,97.6730
2019-05-10T05:19:55.334Z,97.7020
2019-05-10T05:20:58.328Z,97.7844
2019-05-10T05:22:01.325Z,98.0346
2019-05-10T05:23:04.291Z,98.4573
2019-05-10T05:24:07.325Z,98.2513
2019-05-10T05:25:10.282Z,97.9339
2019-05-10T05:26:13.364Z,98.0499
2019-05-10T05:27:16.394Z,97.0779
2019-05-10T05:28:23.178Z,97.5814
2019-05-10T05:29:27.319Z,97.9065
2019-05-10T05:30:30.311Z,98.2925
2019-05-10T05:31:33.344Z,98.0804
2019-05-10T05:32:38.510Z,98.2742
2019-05-10T05:33:44.332Z,98.0117
2019-05-10T05:34:47.294Z,98.5580
2019-05-10T05:35:50.294Z,98.3551
2019-05-10T05:36:53.333Z,98.5077
2019-05-10T05:37:56.280Z,98.6435
2019-05-10T05:38:59.304Z,98.7228
2019-05-10T05:40:02.333Z,98.5336
2019-05-10T05:41:05.310Z,98.6023
2019-05-10T05:42:08.352Z,98.5031
2019-05-10T05:43:11.314Z,98.1811
2019-05-10T05:44:14.322Z,98.1537
2019-05-10T05:45:17.335Z,98.0667
2019-05-10T05:46:20.276Z,98.1079
2019-05-10T05:47:23.402Z,97.8653
2019-05-10T05:48:39.590Z,97.8790
2019-05-10T05:49:34.302Z,97.9843
2019-05-10T05:50:37.284Z,98.0682
2019-05-10T05:51:40.297Z,98.2010
2019-05-10T05:52:43.368Z,98.2223
2019-05-10T05:53:46.319Z,98.2269
2019-05-10T05:54:52.950Z,97.9614
2019-05-10T05:55:57.274Z,98.0209
2019-05-10T05:57:00.347Z,98.0484
2019-05-10T05:58:04.849Z,98.1918
2019-05-10T05:59:09.076Z,98.0575
2019-05-10T06:00:12.311Z,98.1598
2019-05-10T06:01:24.830Z,98.1048
2019-05-10T06:02:23.306Z,97.1923
2019-05-10T06:03:29.206Z,97.0108
2019-05-10T06:04:33.296Z,96.1120
2019-05-10T06:05:37.264Z,96.5393
2019-05-10T06:06:40.362Z,96.7758
2019-05-10T06:07:43.329Z,96.5240
2019-05-10T06:08:46.385Z,96.3272
2019-05-10T06:09:49.326Z,95.7687
2019-05-10T06:10:57.685Z,96.0067
2019-05-10T06:12:00.306Z,96.6476
2019-05-10T06:13:03.352Z,96.1532
2019-05-10T06:14:10.497Z,96.1578
2019-05-10T06:15:14.295Z,95.5901
2019-05-10T06:16:17.306Z,94.9004
2019-05-10T06:17:23.793Z,94.9767
2019-05-10T06:18:28.353Z,95.3338
2019-05-10T06:19:31.294Z,95.1827
2019-05-10T06:20:38.243Z,95.6817
2019-05-10T06:21:42.330Z,96.1089
2019-05-10T06:23:04.990Z,96.6857
2019-05-10T06:23:53.328Z,95.3216
2019-05-10T06:24:56.301Z,95.4253
2019-05-10T06:25:59.347Z,95.6191
2019-05-10T06:27:03.396Z,94.8714
2019-05-10T06:28:25.352Z,94.6166
2019-05-10T06:29:19.672Z,93.1105
2019-05-10T06:30:23.612Z,93.3928
2019-05-10T06:31:27.279Z,94.1253
2019-05-10T06:32:30.299Z,94.8226
2019-05-10T06:33:32.316Z,94.7707
2019-05-10T06:34:38.830Z,95.6451
2019-05-10T06:35:43.330Z,95.6039
2019-05-10T06:36:46.349Z,95.7778
2019-05-10T06:37:49.317Z,95.6466
2019-05-10T06:38:52.366Z,94.8821
2019-05-10T06:39:55.281Z,95.1247
2019-05-10T06:40:58.303Z,95.4345
2019-05-10T06:42:01.326Z,95.8022
2019-05-10T06:43:06.927Z,96.0204
2019-05-10T06:44:12.354Z,95.7916
2019-05-10T06:45:16.340Z,96.2966
2019-05-10T06:46:23.645Z,96.3684
2019-05-10T06:47:27.330Z,95.9854
2019-05-10T06:48:33.642Z,95.7275
2019-05-10T06:49:41.014Z,94.8440
2019-05-10T06:50:45.347Z,95.6817
2019-05-10T06:51:49.197Z,94.7082
2019-05-10T06:52:54.303Z,94.7753
2019-05-10T06:53:57.304Z,94.1634
2019-05-10T06:55:00.296Z,94.4320
2019-05-10T06:56:03.389Z,94.3053
2019-05-10T06:57:11.069Z,94.6838
2019-05-10T06:58:14.370Z,94.8760
2019-05-10T06:59:19.471Z,95.0103
2019-05-10T07:00:25.374Z,95.0591
2019-05-10T07:01:28.298Z,93.3669
2019-05-10T07:02:32.483Z,94.7631
2019-05-10T07:03:36.303Z,94.4640
2019-05-10T07:04:41.069Z,94.1665
2019-05-10T07:05:44.300Z,93.0312
2019-05-10T07:06:47.284Z,93.5531
2019-05-10T07:07:50.293Z,94.6563
2019-05-10T07:08:58.086Z,94.8898
2019-05-10T07:10:12.356Z,94.6029
2019-05-10T07:11:09.383Z,94.5617
2019-05-10T07:12:15.195Z,93.6080
2019-05-10T07:13:20.305Z,93.8888
2019-05-10T07:14:25.366Z,93.8293
2019-05-10T07:15:30.307Z,94.5922
2019-05-10T07:16:33.299Z,94.8165
2019-05-10T07:17:43.655Z,95.1827
2019-05-10T07:18:45.334Z,94.6792
2019-05-10T07:19:53.876Z,94.8547
2019-05-10T07:21:00.984Z,95.5596
2019-05-10T07:22:04.342Z,94.8348
2019-05-10T07:23:07.930Z,94.4366
2019-05-10T07:24:11.310Z,95.0332
2019-05-10T07:25:14.305Z,95.3262
2019-05-10T07:26:23.504Z,95.9213
2019-05-10T07:27:25.330Z,96.1898
2019-05-10T07:28:28.320Z,96.5881
2019-05-10T07:29:41.890Z,95.9747
2019-05-10T07:30:41.400Z,95.9625
2019-05-10T07:31:45.350Z,96.2142
2019-05-10T07:32:48.329Z,95.6512
2019-05-10T07:33:51.316Z,94.5388
2019-05-10T07:34:58.942Z,93.5760
2019-05-10T07:36:02.374Z,95.1782
2019-05-10T07:37:05.295Z,94.5434
2019-05-10T07:38:08.324Z,93.8521
2019-05-10T07:39:11.300Z,94.6303
2019-05-10T07:40:14.307Z,94.6426
2019-05-10T07:41:19.738Z,94.7387
2019-05-10T07:42:25.298Z,94.6426
2019-05-10T07:43:28.993Z,94.5708
2019-05-10T07:44:32.293Z,93.9193
2019-05-10T07:45:35.326Z,94.3908
2019-05-10T07:46:39.931Z,94.0658
2019-05-10T07:47:46.345Z,93.6416
2019-05-10T07:48:53.457Z,92.6696
2019-05-10T07:49:57.328Z,92.6162
2019-05-10T07:51:00.327Z,93.0236
2019-05-10T07:52:04.455Z,93.1380
2019-05-10T07:53:08.294Z,94.2916
2019-05-10T07:54:11.349Z,94.3130
2019-05-10T07:55:18.602Z,93.7865
2019-05-10T07:56:22.353Z,93.0007
2019-05-10T07:57:27.070Z,93.0449
2019-05-10T07:58:30.304Z,93.4997
2019-05-10T07:59:49.525Z,92.3003
2019-05-10T08:00:44.503Z,91.3970
2019-05-10T08:01:49.499Z,91.8151
2019-05-10T08:03:00.796Z,91.4107
2019-05-10T08:04:00.307Z,90.5470
2019-05-10T08:05:04.921Z,90.4143
2019-05-10T08:06:11.364Z,89.6223
2019-05-10T08:07:14.313Z,89.8146
2019-05-10T08:08:19.185Z,90.7835
2019-05-10T08:09:21.283Z,89.7368
2019-05-10T08:10:24.330Z,90.0603
2019-05-10T08:11:28.549Z,89.6254
2019-05-10T08:12:35.176Z,90.2495
2019-05-10T08:13:40.328Z,90.1884
2019-05-10T08:14:44.369Z,88.1331
2019-05-10T08:15:51.348Z,88.6870
2019-05-10T08:16:58.608Z,88.6656
2019-05-10T08:18:02.361Z,89.3278
2019-05-10T08:19:05.330Z,90.3548
2019-05-10T08:20:09.043Z,88.7571
2019-05-10T08:21:23.945Z,89.9016
2019-05-10T08:22:24.340Z,89.4377
2019-05-10T08:23:28.131Z,89.4469
2019-05-10T08:24:32.729Z,89.4621
2019-05-10T08:25:44.308Z,89.1127
2019-05-10T08:26:46.323Z,89.6117
2019-05-10T08:27:55.046Z,89.3645
2019-05-10T08:28:57.298Z,89.5720
2019-05-10T08:31:08.357Z,89.4926
2019-05-10T08:32:12.738Z,89.4331
2019-05-10T08:33:16.400Z,88.5969
2019-05-10T08:34:19.360Z,89.0623
2019-05-10T08:35:22.315Z,88.6641
2019-05-10T08:36:25.318Z,89.0822
2019-05-10T08:37:35.908Z,88.3803
2019-05-10T08:38:39.568Z,88.2429
2019-05-10T08:39:49.070Z,88.3391
2019-05-10T08:40:52.934Z,87.3701
2019-05-10T08:42:04.973Z,86.6972
2019-05-10T08:43:08.440Z,88.6152
2019-05-10T08:44:19.446Z,87.8309
2019-05-10T08:45:22.680Z,87.6020
2019-05-10T08:46:34.919Z,86.6773
2019-05-10T08:47:34.291Z,85.7908
2019-05-10T08:48:38.146Z,83.4791
2019-05-10T08:49:57.081Z,83.5431
2019-05-10T08:50:57.021Z,83.8666
2019-05-10T08:52:02.470Z,84.1871
2019-05-10T08:53:11.123Z,83.6103
2019-05-10T08:54:14.303Z,85.5207
2019-05-10T08:55:17.323Z,85.4475
2019-05-10T08:56:23.458Z,85.4520
2019-05-10T08:57:27.306Z,86.0792
2019-05-10T08:58:36.759Z,85.7176
2019-05-10T08:59:38.356Z,85.3086
2019-05-10T09:00:54.169Z,87.6265
2019-05-10T09:01:50.992Z,86.8757
2019-05-10T09:03:02.332Z,87.0253
2019-05-10T09:04:06.878Z,86.3447
2019-05-10T09:05:13.301Z,86.4851
2019-05-10T09:06:17.109Z,86.6545
2019-05-10T09:07:20.333Z,87.6066
2019-05-10T09:08:27.283Z,86.8345
2019-05-10T09:09:33.778Z,85.9327
2019-05-10T09:10:39.290Z,87.0405
2019-05-10T09:11:44.379Z,86.9474
2019-05-10T09:12:54.203Z,85.8778
2019-05-10T09:13:57.814Z,84.6769
2019-05-10T09:15:08.352Z,84.4541
2019-05-10T09:16:09.305Z,84.4495
2019-05-10T09:17:14.888Z,85.2644
2019-05-10T09:18:22.740Z,84.2481
2019-05-10T09:19:36.025Z,84.4434
2019-05-10T09:20:34.290Z,84.2603
2019-05-10T09:21:40.902Z,84.9943
2019-05-10T09:22:45.297Z,84.7547
2019-05-10T09:23:52.844Z,84.0589
2019-05-10T09:24:56.315Z,84.3977
2019-05-10T09:26:03.728Z,83.9582
2019-05-10T09:27:07.283Z,84.4022
2019-05-10T09:28:14.945Z,82.3255
2019-05-10T09:29:18.305Z,81.8341
2019-05-10T09:30:22.007Z,82.1836
2019-05-10T09:31:25.834Z,82.5849
2019-05-10T09:32:30.642Z,83.4104
2019-05-10T09:33:40.992Z,83.9078
2019-05-10T09:34:44.319Z,83.7110
2019-05-10T09:35:52.315Z,82.7878
2019-05-10T09:36:55.326Z,81.8357
2019-05-10T09:37:58.718Z,80.9339
2019-05-10T09:39:03.442Z,79.7299
2019-05-10T09:40:09.992Z,80.1999
2019-05-10T09:41:14.321Z,80.4196
2019-05-10T09:42:25.692Z,81.7899
2019-05-10T09:43:25.314Z,81.0559
2019-05-10T09:44:27.422Z,80.4700
2019-05-10T09:45:32.477Z,78.9014
2019-05-10T09:46:36.335Z,76.9177
2019-05-10T09:47:39.339Z,79.1989
2019-05-10T09:48:44.640Z,80.0549
2019-05-10T09:49:54.123Z,80.5982
2019-05-10T09:51:00.199Z,79.4003
2019-05-10T09:52:12.377Z,80.5295
2019-05-10T09:53:15.299Z,81.1398
2019-05-10T09:54:23.222Z,81.5686
2019-05-10T09:55:27.958Z,82.2614
2019-05-10T09:56:33.039Z,83.6194
2019-05-10T09:57:39.317Z,84.1749
2019-05-10T09:58:42.303Z,85.5665
2019-05-10T09:59:46.998Z,86.6819
2019-05-10T10:00:50.334Z,85.5833
2019-05-10T10:01:53.330Z,86.7109
2019-05-10T10:03:00.941Z,85.5940
2019-05-10T10:04:04.306Z,87.4937
2019-05-10T10:05:07.575Z,87.4250
2019-05-10T10:06:11.249Z,87.0497
2019-05-10T10:07:14.322Z,87.6768
2019-05-10T10:08:17.659Z,87.5074
2019-05-10T10:09:24.658Z,86.5034
2019-05-10T10:10:31.957Z,85.5421
2019-05-10T10:11:35.306Z,84.4862
2019-05-10T10:12:38.316Z,83.8438
2019-05-10T10:13:44.008Z,82.3117
2019-05-10T10:14:49.308Z,80.6897
2019-05-10T10:15:52.656Z,76.8307
2019-05-10T10:17:02.143Z,73.4524
2019-05-10T10:18:04.282Z,77.6608
2019-05-10T10:19:07.336Z,78.0499
2019-05-10T10:20:10.343Z,78.7320
2019-05-10T10:21:13.450Z,80.3113
2019-05-10T10:22:21.341Z,79.4812
2019-05-10T10:23:24.803Z,79.4537
2019-05-10T10:24:31.357Z,78.1399
2019-05-10T10:25:35.088Z,81.1841
2019-05-10T10:26:42.285Z,78.5748
2019-05-10T10:27:45.322Z,79.9725
2019-05-10T10:28:49.565Z,82.2003
2019-05-10T10:29:57.358Z,81.9760
2019-05-10T10:31:05.252Z,80.7950
2019-05-10T10:32:08.355Z,79.8352
2019-05-10T10:33:16.032Z,79.1623
2019-05-10T10:34:19.315Z,78.9197
2019-05-10T10:35:26.837Z,79.8428
2019-05-10T10:36:30.262Z,80.0183
2019-05-10T10:37:33.309Z,78.4009
2019-05-10T10:38:44.755Z,76.3363
2019-05-10T10:39:44.346Z,73.9223
2019-05-10T10:40:49.348Z,73.1304
2019-05-10T10:41:52.337Z,70.5577
2019-05-10T10:42:57.683Z,70.8980
2019-05-10T10:44:01.330Z,71.8135
2019-05-10T10:45:04.292Z,73.4615
2019-05-10T10:46:11.864Z,72.2286
2019-05-10T10:47:15.304Z,71.5023
2019-05-10T10:48:18.335Z,71.1498
2019-05-10T10:49:25.499Z,70.9697
2019-05-10T10:50:29.329Z,72.7794
2019-05-10T10:51:34.460Z,72.0089
2019-05-10T10:52:38.323Z,70.9331
2019-05-10T10:53:41.330Z,72.2881
2019-05-10T10:54:44.295Z,72.7275
2019-05-10T10:55:53.974Z,73.0816
2019-05-10T10:56:59.262Z,72.0287
2019-05-10T10:58:03.309Z,73.9086
2019-05-10T10:59:07.538Z,73.0999
2019-05-10T11:00:11.309Z,73.2006
2019-05-10T11:01:21.486Z,74.7570
2019-05-10T11:02:32.385Z,71.9875
2019-05-10T11:03:30.945Z,73.1350
2019-05-10T11:04:40.638Z,72.0607
2019-05-10T11:05:43.350Z,71.9829
2019-05-10T11:06:46.341Z,72.0500
2019-05-10T11:07:51.185Z,71.3603
2019-05-10T11:08:53.330Z,71.5068
2019-05-10T11:10:13.270Z,72.0729
2019-05-10T11:11:04.366Z,71.6670
2019-05-10T11:12:07.307Z,71.2306
2019-05-10T11:13:18.080Z,72.1523
2019-05-10T11:14:20.507Z,72.8557
2019-05-10T11:15:28.181Z,72.6375
2019-05-10T11:16:32.354Z,73.0220
2019-05-10T11:17:35.315Z,70.4128
2019-05-10T11:18:38.311Z,70.2342
2019-05-10T11:19:41.821Z,70.2327
2019-05-10T11:20:49.383Z,70.3212
2019-05-10T11:21:53.334Z,68.7327
2019-05-10T11:22:56.307Z,69.0074
2019-05-10T11:23:58.339Z,68.4398
2019-05-10T11:25:09.196Z,69.3324
2019-05-10T11:26:10.838Z,69.6056
2019-05-10T11:27:17.181Z,69.0288
2019-05-10T11:28:20.689Z,68.4657
2019-05-10T11:29:27.724Z,65.6092
2019-05-10T11:30:32.515Z,68.0262
2019-05-10T11:31:36.327Z,69.1890
2019-05-10T11:32:41.591Z,69.9641
2019-05-10T11:33:47.487Z,67.8523
2019-05-10T11:34:53.297Z,66.7399
2019-05-10T11:35:57.707Z,66.5217
2019-05-10T11:37:04.287Z,65.7252
2019-05-10T11:38:12.954Z,68.3330
2019-05-10T11:39:25.750Z,66.1326
2019-05-10T11:40:29.790Z,68.1544
2019-05-10T11:41:31.593Z,67.2450
2019-05-10T11:42:37.436Z,69.1722
2019-05-10T11:43:43.328Z,71.0155
2019-05-10T11:44:50.203Z,71.5877
2019-05-10T11:45:54.302Z,71.4824
2019-05-10T11:46:57.335Z,71.5877
2019-05-10T11:48:02.156Z,69.3263
2019-05-10T11:49:05.322Z,69.0150
2019-05-10T11:50:10.475Z,68.6030
2019-05-10T11:52:22.299Z,66.8818
2019-05-10T11:53:25.317Z,68.6000
2019-05-10T11:54:28.332Z,68.7541
2019-05-10T11:55:35.229Z,70.2052
2019-05-10T11:56:41.046Z,70.5165
2019-05-10T11:57:44.555Z,69.0349
2019-05-10T11:59:03.714Z,68.7282
2019-05-10T12:00:00.295Z,66.6407
2019-05-10T12:01:14.804Z,67.2206
2019-05-10T12:02:33.735Z,67.1443
2019-05-10T12:03:23.319Z,67.7333
2019-05-10T12:04:36.376Z,69.1356
2019-05-10T12:05:35.313Z,68.7190
2019-05-10T12:06:41.235Z,66.1646
2019-05-10T12:07:46.421Z,66.5660
2019-05-10T12:08:57.053Z,65.0431
2019-05-10T12:10:08.285Z,65.5131
2019-05-10T12:12:13.335Z,61.1597
2019-05-10T12:13:23.650Z,61.7334
2019-05-10T12:14:25.343Z,63.7110
2019-05-10T12:15:31.446Z,65.3452
2019-05-10T12:16:35.346Z,66.2425
2019-05-10T12:17:46.410Z,66.4744
2019-05-10T12:19:01.233Z,64.1001
2019-05-10T12:21:09.631Z,59.3195
2019-05-10T12:22:15.976Z,57.8454
2019-05-10T12:23:29.682Z,62.5986
2019-05-10T12:24:46.216Z,62.8779
2019-05-10T12:25:51.508Z,64.2405
2019-05-10T12:26:16.032Z,61.7639
2019-05-10T12:26:17.889Z,68.4123
2019-05-10T12:26:27.366Z,60.2716
2019-05-10T12:27:52.397Z,67.2679
2019-05-10T12:29:02.183Z,65.7557
2019-05-10T12:30:04.344Z,68.0827
2019-05-10T12:31:07.522Z,67.3777
2019-05-10T12:32:15.328Z,68.8914
2019-05-10T12:33:25.130Z,67.5364
2019-05-10T12:34:26.397Z,67.5685
2019-05-10T12:35:35.739Z,67.1839
2019-05-10T12:36:37.283Z,66.5293
2019-05-10T12:37:46.280Z,64.9287
2019-05-10T12:38:48.314Z,65.1926
2019-05-10T12:39:53.142Z,65.4169
2019-05-10T12:40:56.310Z,64.6433
2019-05-10T12:41:59.316Z,65.7237
2019-05-10T12:43:02.324Z,65.2262
2019-05-10T12:44:07.440Z,65.2979
2019-05-10T12:45:10.291Z,61.3214
2019-05-10T12:46:13.304Z,61.4298
2019-05-10T12:47:16.307Z,61.5030
2019-05-10T12:48:23.214Z,62.1866
2019-05-10T12:49:26.339Z,58.5290
2019-05-10T12:50:29.320Z,57.6989
2019-05-10T12:51:31.359Z,59.7787
2019-05-10T12:52:34.382Z,60.1724
2019-05-10T12:53:44.435Z,59.3851
2019-05-10T12:54:45.341Z,59.6139
2019-05-10T12:55:48.326Z,56.9711
2019-05-10T12:56:51.332Z,58.3947
2019-05-10T12:57:54.294Z,54.3160